South Mountain, Pennsylvania
Current Conditions -  °F | °C
As of 11:53 AM on Thursday 27 Nov 2014 (Local Time) from KRYT Reporting Station
Broken Clouds Broken Clouds  
Wind Chill: 37°   Ceiling: 5500
Heat Index: 37°   Visibility: 10mi
Dew Point: 31°   Wind: 0mph
Humidity: 79%   Direction: NA
Pressure: 30.01"   Gusts: NA
Location:  39.85°N, 77.49°W
Report Text: KRYT 271653Z AUTO 00000KT 10SM SCT013 BKN055 03/M01 A3001 RMK AO2 SLP175 T00281006 $
Loading
Personal Weather Stations






























Interactive Weather Map New forecast layout! Learn more

10-Day Weather Forecast

Advertisements
Track Severe Weather on mobile